createdAt,value
2022-09-01T00:01:27.083Z,101655.94
2022-09-01T00:03:55.456Z,101659.88
2022-09-01T00:06:24.126Z,101649.19
2022-09-01T00:08:55.843Z,101653.22
2022-09-01T00:11:24.666Z,101656.13
2022-09-01T00:13:52.999Z,101651.84
2022-09-01T00:16:20.986Z,101657.09
2022-09-01T00:18:54.551Z,101655.97
2022-09-01T00:21:31.316Z,101655.16
2022-09-01T00:23:57.869Z,101657.66
2022-09-01T00:26:24.483Z,101650.44
2022-09-01T00:28:51.210Z,101647.72
2022-09-01T00:31:21.407Z,101651.78
2022-09-01T00:33:49.231Z,101651.41
2022-09-01T00:36:17.070Z,101646.78
2022-09-01T00:38:43.921Z,101641.59
2022-09-01T00:41:11.258Z,101646.97
2022-09-01T00:43:45.573Z,101644.63
2022-09-01T00:46:24.873Z,101648.44
2022-09-01T00:49:03.030Z,101650.19
2022-09-01T00:51:33.139Z,101638.06
2022-09-01T00:54:01.544Z,101645.72
2022-09-01T00:56:30.435Z,101641.84
2022-09-01T00:58:57.257Z,101646.22
2022-09-01T01:01:24.031Z,101643.50
2022-09-01T01:03:50.550Z,101641.66
2022-09-01T01:06:19.162Z,101640.50
2022-09-01T01:08:56.798Z,101638.59
2022-09-01T01:11:24.788Z,101641.13
2022-09-01T01:13:54.726Z,101645.16
2022-09-01T01:16:22.633Z,101643.22
2022-09-01T01:18:49.146Z,101646.53
2022-09-01T01:21:39.149Z,101647.78
2022-09-01T01:24:26.210Z,101642.38
2022-09-01T01:26:57.389Z,101644.84
2022-09-01T01:29:24.035Z,101643.78
2022-09-01T01:31:53.851Z,101645.03
2022-09-01T01:34:20.619Z,101645.16
2022-09-01T01:36:47.842Z,101641.69
2022-09-01T01:39:16.588Z,101653.06
2022-09-01T01:41:48.703Z,101647.44
2022-09-01T01:44:18.561Z,101649.56
2022-09-01T01:46:50.283Z,101652.84
2022-09-01T01:49:20.643Z,101657.75
2022-09-01T01:51:57.853Z,101650.72
2022-09-01T01:54:26.975Z,101654.44
2022-09-01T01:56:53.946Z,101658.50
2022-09-01T01:59:20.607Z,101660.25
2022-09-01T02:01:51.413Z,101660.69
2022-09-01T02:04:20.461Z,101660.03
2022-09-01T02:06:48.457Z,101665.63
2022-09-01T02:09:18.796Z,101660.16
2022-09-01T02:11:45.772Z,101663.00
2022-09-01T02:14:13.455Z,101672.66
2022-09-01T02:16:40.374Z,101669.47
2022-09-01T02:19:09.952Z,101668.31
2022-09-01T02:21:36.515Z,101662.81
2022-09-01T02:24:08.307Z,101669.13
2022-09-01T02:26:42.113Z,101666.03
2022-09-01T02:29:19.023Z,101664.47
2022-09-01T02:31:50.536Z,101656.13
2022-09-01T02:34:18.023Z,101660.16
2022-09-01T02:36:48.228Z,101661.78
2022-09-01T02:39:17.171Z,101653.88
2022-09-01T02:41:43.923Z,101662.34
2022-09-01T02:44:14.735Z,101665.91
2022-09-01T02:46:45.633Z,101659.25
2022-09-01T02:49:15.463Z,101663.63
2022-09-01T02:51:48.283Z,101663.63
2022-09-01T02:54:17.152Z,101666.13
2022-09-01T02:56:48.230Z,101658.19
2022-09-01T02:59:16.215Z,101659.84
2022-09-01T03:01:44.762Z,101660.69
2022-09-01T03:04:11.529Z,101657.13
2022-09-01T03:06:39.569Z,101658.38
2022-09-01T03:09:11.195Z,101676.03
2022-09-01T03:11:40.347Z,101669.75
2022-09-01T03:14:08.090Z,101665.78
2022-09-01T03:16:35.675Z,101674.22
2022-09-01T03:19:07.426Z,101671.88
2022-09-01T03:21:34.139Z,101669.00
2022-09-01T03:24:03.636Z,101674.22
2022-09-01T03:26:31.388Z,101679.91
2022-09-01T03:28:59.119Z,101677.13
2022-09-01T03:31:29.058Z,101675.94
2022-09-01T03:33:58.363Z,101678.78
2022-09-01T03:36:25.704Z,101678.78
2022-09-01T03:38:52.798Z,101672.88
2022-09-01T03:41:25.283Z,101669.34
2022-09-01T03:43:58.018Z,101682.09
2022-09-01T03:46:26.681Z,101672.13
2022-09-01T03:49:07.509Z,101675.78
2022-09-01T03:51:35.251Z,101672.25
2022-09-01T03:54:01.814Z,101667.84
2022-09-01T03:56:29.457Z,101671.50
2022-09-01T03:58:58.791Z,101665.97
2022-09-01T04:01:27.852Z,101666.00
2022-09-01T04:03:54.494Z,101668.84
2022-09-01T04:06:23.896Z,101667.34
2022-09-01T04:08:55.610Z,101665.72
2022-09-01T04:11:24.110Z,101663.75
2022-09-01T04:13:51.602Z,101663.44
2022-09-01T04:16:45.695Z,101663.09
2022-09-01T04:19:20.566Z,101656.38
2022-09-01T04:21:50.419Z,101662.00
2022-09-01T04:24:19.064Z,101665.25
2022-09-01T04:26:48.566Z,101661.25
2022-09-01T04:29:19.354Z,101663.31
2022-09-01T04:31:49.144Z,101659.78
2022-09-01T04:34:16.270Z,101665.84
2022-09-01T04:36:44.679Z,101670.22
2022-09-01T04:39:13.269Z,101665.47
2022-09-01T04:41:42.566Z,101659.94
2022-09-01T04:44:09.330Z,101667.94
2022-09-01T04:46:42.196Z,101663.16
2022-09-01T04:49:13.311Z,101663.16
2022-09-01T04:51:45.103Z,101663.22
2022-09-01T04:54:14.772Z,101664.41
2022-09-01T04:56:44.507Z,101664.88
2022-09-01T04:59:12.879Z,101670.81
2022-09-01T05:01:45.072Z,101667.25
2022-09-01T05:04:18.123Z,101668.44
2022-09-01T05:06:49.248Z,101658.81
2022-09-01T05:09:18.027Z,101663.25
2022-09-01T05:11:48.613Z,101664.41
2022-09-01T05:14:20.031Z,101655.25
2022-09-01T05:16:47.099Z,101668.75
2022-09-01T05:19:15.718Z,101665.53
2022-09-01T05:21:46.561Z,101667.91
2022-09-01T05:24:19.816Z,101659.88
2022-09-01T05:26:50.793Z,101665.06
2022-09-01T05:29:17.691Z,101669.78
2022-09-01T05:31:47.002Z,101668.47
2022-09-01T05:34:26.838Z,101668.44
2022-09-01T05:36:57.900Z,101674.78
2022-09-01T05:39:25.053Z,101673.94
2022-09-01T05:41:53.815Z,101675.53
2022-09-01T05:44:25.034Z,101677.06
2022-09-01T05:46:53.154Z,101674.63
2022-09-01T05:49:20.032Z,101673.84
2022-09-01T05:51:50.840Z,101673.78
2022-09-01T05:54:21.794Z,101671.81
2022-09-01T05:56:48.889Z,101675.72
2022-09-01T05:59:24.458Z,101678.88
2022-09-01T06:01:53.194Z,101673.66
2022-09-01T06:04:20.156Z,101684.78
2022-09-01T06:07:05.767Z,101681.16
2022-09-01T06:09:38.103Z,101685.91
2022-09-01T06:12:05.708Z,101686.25
2022-09-01T06:14:32.406Z,101690.22
2022-09-01T06:16:58.921Z,101691.34
2022-09-01T06:19:25.947Z,101695.69
2022-09-01T06:21:53.431Z,101692.78
2022-09-01T06:24:19.960Z,101693.56
2022-09-01T06:26:46.772Z,101684.34
2022-09-01T06:29:15.530Z,101690.59
2022-09-01T06:31:43.424Z,101696.09
2022-09-01T06:34:17.048Z,101688.44
2022-09-01T06:36:45.791Z,101695.56
2022-09-01T06:39:19.672Z,101701.84
2022-09-01T06:41:48.082Z,101702.56
2022-09-01T06:44:14.769Z,101695.69
2022-09-01T06:46:41.380Z,101694.00
2022-09-01T06:49:11.526Z,101708.69
2022-09-01T06:51:38.076Z,101705.78
2022-09-01T06:54:07.167Z,101702.03
2022-09-01T06:56:37.299Z,101694.41
2022-09-01T06:59:15.489Z,101687.09
2022-09-01T07:01:42.428Z,101702.13
2022-09-01T07:04:12.798Z,101699.13
2022-09-01T07:07:01.807Z,101697.72
2022-09-01T07:09:50.372Z,101690.25
2022-09-01T07:12:31.968Z,101687.59
2022-09-01T07:17:58.370Z,101701.16
2022-09-01T07:20:29.092Z,101695.44
2022-09-01T07:23:06.510Z,101696.41
2022-09-01T07:26:02.301Z,101695.81
2022-09-01T07:28:39.962Z,101697.16
2022-09-01T07:34:37.673Z,101690.34
2022-09-01T07:39:49.171Z,101692.31
2022-09-01T07:45:26.085Z,101695.06
2022-09-01T07:47:53.776Z,101687.16
2022-09-01T07:53:09.070Z,101685.63
2022-09-01T07:55:35.754Z,101683.06
2022-09-01T07:58:02.191Z,101692.09
2022-09-01T08:00:31.564Z,101685.03
2022-09-01T08:02:58.607Z,101691.63
2022-09-01T08:05:27.177Z,101689.31
2022-09-01T08:07:54.058Z,101692.25
2022-09-01T08:10:21.586Z,101687.59
2022-09-01T08:12:56.279Z,101689.84
2022-09-01T08:16:06.021Z,101695.53
2022-09-01T08:18:13.885Z,101701.63
2022-09-01T08:20:45.368Z,101699.47
2022-09-01T08:23:14.897Z,101697.69
2022-09-01T08:25:42.732Z,101698.81
2022-09-01T08:28:10.142Z,101697.72
2022-09-01T08:30:40.488Z,101695.78
2022-09-01T08:33:10.538Z,101698.28
2022-09-01T08:35:39.991Z,101703.22
2022-09-01T08:38:07.152Z,101697.25
2022-09-01T08:40:34.447Z,101694.97
2022-09-01T08:43:26.660Z,101699.34
2022-09-01T08:46:04.983Z,101694.13
2022-09-01T08:49:23.809Z,101688.25
2022-09-01T08:51:31.901Z,101684.06
2022-09-01T08:54:04.319Z,101686.50
2022-09-01T08:56:32.254Z,101689.84
2022-09-01T09:01:45.196Z,101686.59
2022-09-01T09:04:20.402Z,101690.25
2022-09-01T09:07:01.269Z,101686.69
2022-09-01T09:09:53.997Z,101678.63
2022-09-01T09:12:49.019Z,101676.22
2022-09-01T09:15:37.347Z,101672.81
2022-09-01T09:18:38.733Z,101668.31
2022-09-01T09:21:19.687Z,101674.66
2022-09-01T09:23:53.972Z,101668.09
2022-09-01T09:26:22.364Z,101670.19
2022-09-01T09:28:50.079Z,101661.56
2022-09-01T09:31:43.564Z,101669.13
2022-09-01T09:34:37.397Z,101654.69
2022-09-01T09:37:16.926Z,101652.66
2022-09-01T09:39:44.127Z,101654.06
2022-09-01T09:42:14.218Z,101653.13
2022-09-01T09:44:52.697Z,101655.66
2022-09-01T09:47:43.560Z,101654.72
2022-09-01T09:50:20.152Z,101646.44
2022-09-01T09:52:48.120Z,101641.84
2022-09-01T09:55:29.897Z,101649.56
2022-09-01T09:58:09.550Z,101637.56
2022-09-01T10:00:36.339Z,101639.78
2022-09-01T10:03:11.244Z,101633.47
2022-09-01T10:05:48.353Z,101630.91
2022-09-01T10:08:45.643Z,101630.44
2022-09-01T10:11:31.314Z,101619.88
2022-09-01T10:14:04.855Z,101621.88
2022-09-01T10:16:35.101Z,101613.94
2022-09-01T10:19:02.514Z,101604.47
2022-09-01T10:21:37.488Z,101615.91
2022-09-01T10:24:22.263Z,101611.94
2022-09-01T10:26:57.220Z,101611.56
2022-09-01T10:29:34.838Z,101615.69
2022-09-01T10:32:31.236Z,101618.59
2022-09-01T10:34:56.168Z,101621.75
2022-09-01T10:37:27.687Z,101616.06
2022-09-01T10:40:34.201Z,101614.19
2022-09-01T10:43:27.240Z,101609.66
2022-09-01T10:45:58.893Z,101594.25
2022-09-01T10:48:46.132Z,101597.19
2022-09-01T10:51:18.370Z,101593.00
2022-09-01T10:53:51.261Z,101588.56
2022-09-01T10:56:44.335Z,101591.34
2022-09-01T10:59:32.730Z,101583.94
2022-09-01T11:02:28.699Z,101582.41
2022-09-01T11:04:55.941Z,101595.78
2022-09-01T11:07:29.747Z,101589.88
2022-09-01T11:10:32.360Z,101593.28
2022-09-01T11:13:27.155Z,101579.50
2022-09-01T11:15:54.223Z,101581.66
2022-09-01T11:18:27.866Z,101577.47
2022-09-01T11:20:56.269Z,101571.94
2022-09-01T11:23:30.527Z,101576.44
2022-09-01T11:28:47.276Z,101574.03
2022-09-01T11:31:23.292Z,101570.09
2022-09-01T11:33:59.002Z,101564.56
2022-09-01T11:36:59.394Z,101558.59
2022-09-01T11:39:41.256Z,101571.63
2022-09-01T11:42:28.016Z,101567.41
2022-09-01T11:45:02.524Z,101561.75
2022-09-01T11:47:34.169Z,101565.09
2022-09-01T11:50:08.479Z,101571.94
2022-09-01T11:52:39.035Z,101557.75
2022-09-01T11:55:07.096Z,101557.56
2022-09-01T11:57:39.718Z,101553.91
2022-09-01T12:00:11.919Z,101547.28
2022-09-01T12:02:50.630Z,101557.13
2022-09-01T12:05:26.679Z,101550.03
2022-09-01T12:07:53.806Z,101563.94
2022-09-01T12:10:49.417Z,101551.28
2022-09-01T12:13:22.671Z,101545.94
2022-09-01T12:16:19.656Z,101553.84
2022-09-01T12:18:48.862Z,101535.50
2022-09-01T12:21:23.097Z,101542.25
2022-09-01T12:23:50.123Z,101535.50
2022-09-01T12:26:22.555Z,101541.34
2022-09-01T12:28:49.831Z,101538.31
2022-09-01T12:31:23.638Z,101534.94
2022-09-01T12:33:52.155Z,101527.59
2022-09-01T12:36:28.950Z,101529.97
2022-09-01T12:38:57.618Z,101516.75
2022-09-01T12:41:25.310Z,101524.28
2022-09-01T12:43:54.773Z,101509.34
2022-09-01T12:46:46.712Z,101508.31
2022-09-01T12:49:28.265Z,101502.75
2022-09-01T12:52:19.861Z,101510.34
2022-09-01T12:54:50.219Z,101505.97
2022-09-01T12:57:34.341Z,101508.00
2022-09-01T13:00:07.216Z,101499.81
2022-09-01T13:02:37.049Z,101487.28
2022-09-01T13:05:36.115Z,101493.09
2022-09-01T13:08:10.168Z,101497.16
2022-09-01T13:10:38.641Z,101490.19
2022-09-01T13:13:06.864Z,101488.91
2022-09-01T13:15:34.808Z,101487.78
2022-09-01T13:18:01.333Z,101486.97
2022-09-01T13:20:27.887Z,101490.09
2022-09-01T13:22:54.780Z,101481.38
2022-09-01T13:25:22.882Z,101486.44
2022-09-01T13:27:50.278Z,101479.91
2022-09-01T13:30:19.828Z,101475.81
2022-09-01T13:35:34.754Z,101465.25
2022-09-01T13:38:01.598Z,101458.16
2022-09-01T13:40:28.159Z,101466.59
2022-09-01T13:42:54.745Z,101454.84
2022-09-01T13:45:25.212Z,101463.78
2022-09-01T13:53:26.733Z,101445.13
2022-09-01T13:55:54.899Z,101452.31
2022-09-01T13:58:21.533Z,101445.34
2022-09-01T14:00:48.256Z,101438.91
2022-09-01T14:03:18.540Z,101434.06
2022-09-01T14:05:47.759Z,101437.59
2022-09-01T14:08:19.702Z,101433.38
2022-09-01T14:10:50.652Z,101439.44
2022-09-01T14:13:18.328Z,101438.41
2022-09-01T14:15:44.835Z,101435.53
2022-09-01T14:18:11.629Z,101434.06
2022-09-01T14:20:42.447Z,101434.66
2022-09-01T14:23:10.802Z,101428.78
2022-09-01T14:25:42.042Z,101436.88
2022-09-01T14:28:08.643Z,101426.69
2022-09-01T14:30:35.179Z,101430.22
2022-09-01T14:33:02.694Z,101427.41
2022-09-01T14:35:33.919Z,101416.19
2022-09-01T14:38:03.007Z,101425.25
2022-09-01T14:40:29.673Z,101422.81
2022-09-01T14:42:56.409Z,101421.13
2022-09-01T14:45:26.194Z,101418.41
2022-09-01T14:47:56.005Z,101411.72
2022-09-01T14:50:23.844Z,101419.94
2022-09-01T14:52:54.109Z,101420.72
2022-09-01T14:55:25.440Z,101410.50
2022-09-01T14:57:52.602Z,101409.56
2022-09-01T15:00:19.858Z,101414.69
2022-09-01T15:02:47.285Z,101406.31
2022-09-01T15:05:14.354Z,101396.63
2022-09-01T15:07:41.581Z,101399.97
2022-09-01T15:10:11.196Z,101388.16
2022-09-01T15:12:42.878Z,101389.22
2022-09-01T15:15:09.855Z,101401.06
2022-09-01T15:17:36.672Z,101389.31
2022-09-01T15:20:23.479Z,101388.72
2022-09-01T15:22:50.423Z,101383.19
2022-09-01T15:25:18.292Z,101376.72
2022-09-01T15:27:46.129Z,101379.56
2022-09-01T15:30:17.172Z,101374.13
2022-09-01T15:32:45.576Z,101376.13
2022-09-01T15:35:13.475Z,101373.09
2022-09-01T15:37:40.721Z,101375.81
2022-09-01T15:40:07.910Z,101371.00
2022-09-01T15:42:35.877Z,101366.38
2022-09-01T15:45:04.072Z,101367.16
2022-09-01T15:47:31.520Z,101365.38
2022-09-01T15:49:58.119Z,101363.78
2022-09-01T15:52:27.592Z,101369.19
2022-09-01T15:54:54.088Z,101372.03
2022-09-01T15:57:20.631Z,101369.69
2022-09-01T15:59:47.111Z,101370.41
2022-09-01T16:02:15.218Z,101366.69
2022-09-01T16:04:41.773Z,101364.03
2022-09-01T16:07:08.243Z,101367.88
2022-09-01T16:09:36.829Z,101373.31
2022-09-01T16:12:03.963Z,101369.16
2022-09-01T16:14:31.042Z,101355.09
2022-09-01T16:17:05.333Z,101354.22
2022-09-01T16:19:47.216Z,101362.78
2022-09-01T16:22:26.011Z,101358.34
2022-09-01T16:24:54.819Z,101356.22
2022-09-01T16:27:42.035Z,101348.66
2022-09-01T16:30:14.594Z,101352.22
2022-09-01T16:32:46.849Z,101345.16
2022-09-01T16:35:14.701Z,101349.00
2022-09-01T16:37:50.634Z,101349.69
2022-09-01T16:40:30.628Z,101344.16
2022-09-01T16:43:19.437Z,101344.81
2022-09-01T16:46:07.635Z,101340.53
2022-09-01T16:48:48.320Z,101335.31
2022-09-01T16:51:23.841Z,101347.75
2022-09-01T16:54:20.918Z,101336.03
2022-09-01T16:57:06.314Z,101334.22
2022-09-01T16:59:45.023Z,101327.94
2022-09-01T17:02:49.631Z,101335.66
2022-09-01T17:05:34.351Z,101330.69
2022-09-01T17:08:17.931Z,101332.41
2022-09-01T17:10:54.991Z,101339.00
2022-09-01T17:13:38.695Z,101344.03
2022-09-01T17:16:12.185Z,101337.13
2022-09-01T17:18:44.289Z,101339.41
2022-09-01T17:21:20.595Z,101332.56
2022-09-01T17:24:17.381Z,101350.75
2022-09-01T17:26:50.699Z,101345.56
2022-09-01T17:29:25.592Z,101340.00
2022-09-01T17:32:01.218Z,101333.75
2022-09-01T17:34:34.577Z,101343.97
2022-09-01T17:37:11.601Z,101347.38
2022-09-01T17:39:51.951Z,101347.69
2022-09-01T17:42:21.662Z,101343.09
2022-09-01T17:44:56.205Z,101337.72
2022-09-01T17:47:52.150Z,101346.53
2022-09-01T17:50:41.982Z,101338.72
2022-09-01T17:53:17.536Z,101345.44
2022-09-01T17:56:05.702Z,101334.16
2022-09-01T17:58:48.973Z,101335.03
2022-09-01T18:01:43.806Z,101344.41
2022-09-01T18:04:38.412Z,101346.38
2022-09-01T18:07:35.103Z,101341.09
2022-09-01T18:10:06.963Z,101334.50
2022-09-01T18:12:37.424Z,101344.47
2022-09-01T18:15:21.391Z,101346.84
2022-09-01T18:17:53.477Z,101343.78
2022-09-01T18:20:31.239Z,101347.78
2022-09-01T18:23:06.859Z,101356.81
2022-09-01T18:25:52.335Z,101351.19
2022-09-01T18:28:18.697Z,101353.13
2022-09-01T18:30:55.974Z,101350.34
2022-09-01T18:33:44.558Z,101353.53
2022-09-01T18:36:39.291Z,101357.00
2022-09-01T18:39:24.501Z,101362.97
2022-09-01T18:42:28.604Z,101365.38
2022-09-01T18:45:07.116Z,101368.72
2022-09-01T18:47:36.325Z,101364.00
2022-09-01T18:50:08.726Z,101373.78
2022-09-01T18:52:49.541Z,101370.34
2022-09-01T18:55:46.211Z,101368.13
2022-09-01T18:58:50.873Z,101372.09
2022-09-01T19:01:35.091Z,101371.47
2022-09-01T19:04:19.684Z,101374.16
2022-09-01T19:07:00.111Z,101371.19
2022-09-01T19:09:42.500Z,101373.03
2022-09-01T19:13:01.566Z,101376.19
2022-09-01T19:15:47.377Z,101375.59
2022-09-01T19:18:26.008Z,101380.75
2022-09-01T19:20:55.231Z,101383.44
2022-09-01T19:23:27.497Z,101378.38
2022-09-01T19:26:02.235Z,101391.59
2022-09-01T19:28:47.651Z,101390.31
2022-09-01T19:31:23.881Z,101381.06
2022-09-01T19:34:12.607Z,101396.44
2022-09-01T19:36:55.365Z,101394.22
2022-09-01T19:39:25.347Z,101390.44
2022-09-01T19:42:02.338Z,101392.97
2022-09-01T19:44:44.566Z,101404.38
2022-09-01T19:47:50.031Z,101395.75
2022-09-01T19:50:19.947Z,101399.94
2022-09-01T19:52:56.704Z,101400.59
2022-09-01T19:55:32.898Z,101399.50
2022-09-01T19:58:21.438Z,101408.25
2022-09-01T20:00:52.593Z,101402.75
2022-09-01T20:03:44.689Z,101402.56
2022-09-01T20:06:21.715Z,101402.41
2022-09-01T20:09:10.415Z,101405.22
2022-09-01T20:11:40.095Z,101399.41
2022-09-01T20:14:31.369Z,101406.72
2022-09-01T20:17:02.372Z,101398.56
2022-09-01T20:19:47.214Z,101402.00
2022-09-01T20:22:27.739Z,101398.06
2022-09-01T20:25:08.388Z,101402.75
2022-09-01T20:27:50.203Z,101407.38
2022-09-01T20:30:20.968Z,101399.84
2022-09-01T20:33:15.205Z,101394.47
2022-09-01T20:36:04.865Z,101392.91
2022-09-01T20:39:15.189Z,101398.38
2022-09-01T20:42:02.504Z,101393.00
2022-09-01T20:44:44.623Z,101396.09
2022-09-01T20:47:12.214Z,101392.47
2022-09-01T20:49:39.379Z,101395.13
2022-09-01T20:52:14.329Z,101398.97
2022-09-01T20:54:56.249Z,101401.94
2022-09-01T20:57:26.246Z,101398.13
2022-09-01T20:59:56.287Z,101394.19
2022-09-01T21:02:35.343Z,101396.22
2022-09-01T21:05:01.767Z,101395.69
2022-09-01T21:07:47.014Z,101400.66
2022-09-01T21:10:32.154Z,101405.78
2022-09-01T21:13:07.814Z,101405.53
2022-09-01T21:16:02.256Z,101398.13
2022-09-01T21:18:54.838Z,101402.66
2022-09-01T21:21:59.115Z,101390.75
2022-09-01T21:24:25.614Z,101396.03
2022-09-01T21:26:56.583Z,101399.09
2022-09-01T21:29:29.526Z,101399.34
2022-09-01T21:31:56.672Z,101399.00
2022-09-01T21:34:23.305Z,101399.91
2022-09-01T21:36:50.054Z,101395.53
2022-09-01T21:39:20.397Z,101395.66
2022-09-01T21:41:47.773Z,101392.63
2022-09-01T21:44:14.514Z,101391.97
2022-09-01T21:46:41.119Z,101393.31
2022-09-01T21:49:07.646Z,101400.19
2022-09-01T21:51:34.129Z,101388.72
2022-09-01T21:54:00.613Z,101394.25
2022-09-01T21:56:27.283Z,101397.41
2022-09-01T21:58:54.946Z,101388.28
2022-09-01T22:01:21.457Z,101388.81
2022-09-01T22:03:47.979Z,101389.63
2022-09-01T22:06:14.492Z,101391.75
2022-09-01T22:08:41.793Z,101389.06
2022-09-01T22:11:10.082Z,101380.41
2022-09-01T22:13:36.863Z,101384.25
2022-09-01T22:16:03.785Z,101381.97
2022-09-01T22:18:30.511Z,101382.31
2022-09-01T22:21:09.675Z,101377.69
2022-09-01T22:23:37.240Z,101369.25
2022-09-01T22:26:04.279Z,101377.81
2022-09-01T22:28:31.317Z,101383.56
2022-09-01T22:30:58.322Z,101378.06
2022-09-01T22:33:25.650Z,101378.94
2022-09-01T22:35:54.002Z,101380.19
2022-09-01T22:38:21.740Z,101372.31
2022-09-01T22:40:55.047Z,101378.38
2022-09-01T22:43:25.156Z,101377.25
2022-09-01T22:45:52.804Z,101378.94
2022-09-01T22:48:22.924Z,101374.22
2022-09-01T22:50:51.142Z,101382.19
2022-09-01T22:53:19.996Z,101384.34
2022-09-01T22:55:48.510Z,101381.19
2022-09-01T22:58:16.363Z,101383.31
2022-09-01T23:00:49.282Z,101380.50
2022-09-01T23:03:16.804Z,101383.53
2022-09-01T23:05:44.512Z,101378.88
2022-09-01T23:08:12.041Z,101378.31
2022-09-01T23:10:38.937Z,101377.94
2022-09-01T23:13:05.747Z,101371.66
2022-09-01T23:15:33.455Z,101375.91
2022-09-01T23:18:00.156Z,101367.34
2022-09-01T23:20:27.002Z,101363.50
2022-09-01T23:22:53.863Z,101366.84
2022-09-01T23:25:20.483Z,101363.69
2022-09-01T23:27:47.002Z,101367.50
2022-09-01T23:30:15.075Z,101343.41
2022-09-01T23:32:41.610Z,101353.88
2022-09-01T23:35:09.007Z,101361.94
2022-09-01T23:37:35.537Z,101351.69
2022-09-01T23:40:02.621Z,101354.22
2022-09-01T23:42:29.232Z,101356.78
2022-09-01T23:44:55.905Z,101354.34
2022-09-01T23:47:22.428Z,101342.84
2022-09-01T23:49:48.990Z,101345.81
2022-09-01T23:52:16.091Z,101335.56
2022-09-01T23:54:42.630Z,101337.94
2022-09-01T23:57:09.181Z,101340.28
2022-09-01T23:59:35.696Z,101334.69
